Spencer, South Dakota
Current Conditions -  °F | °C
As of 6:53 PM on Friday 24 Oct 2014 (Local Time) from KMHE Reporting Station
Clear Clear  
Wind Chill: 21°   Ceiling: Unl
Heat Index: 21°   Visibility: 8mi
Dew Point:   Wind: 0mph
Humidity: 32%   Direction: NA
Pressure: 29.93"   Gusts: NA
Location:  43.73°N, 97.59°W
Report Text: KMHE 242353Z AUTO 00000KT 8SM CLR 21/04 A2993 RMK AO2 SLP134 T02110039 10261 20194 53010
Loading
Personal Weather Stations






























Interactive Weather Map
Tropical Storm Tracking
New forecast layout! Learn more

10-Day Weather Forecast

Advertisements
Track Severe Weather on mobile